sensor_id;sensor_type;location;lat;lon;timestamp;temperature;humidity
831;DHT22;397;50.564;7.272;2022-11-04T00:02:11;11.50;99.90
831;DHT22;397;50.564;7.272;2022-11-04T00:04:38;11.50;99.90
831;DHT22;397;50.564;7.272;2022-11-04T00:07:06;11.40;99.90
831;DHT22;397;50.564;7.272;2022-11-04T00:09:35;11.50;99.90
831;DHT22;397;50.564;7.272;2022-11-04T00:12:03;11.50;99.90
831;DHT22;397;50.564;7.272;2022-11-04T00:14:48;11.40;99.90
831;DHT22;397;50.564;7.272;2022-11-04T00:17:16;11.30;99.90
831;DHT22;397;50.564;7.272;2022-11-04T00:19:52;11.30;99.90
831;DHT22;397;50.564;7.272;2022-11-04T00:22:40;11.30;99.90
831;DHT22;397;50.564;7.272;2022-11-04T00:25:26;11.30;99.90
831;DHT22;397;50.564;7.272;2022-11-04T00:28:16;11.10;99.90
831;DHT22;397;50.564;7.272;2022-11-04T00:31:04;11.10;99.90
831;DHT22;397;50.564;7.272;2022-11-04T00:33:51;11.10;99.90
831;DHT22;397;50.564;7.272;2022-11-04T00:36:19;11.10;99.90
831;DHT22;397;50.564;7.272;2022-11-04T00:38:47;11.10;99.90
831;DHT22;397;50.564;7.272;2022-11-04T00:41:15;11.10;99.90
831;DHT22;397;50.564;7.272;2022-11-04T00:43:59;11.20;99.90
831;DHT22;397;50.564;7.272;2022-11-04T00:46:29;11.10;99.90
831;DHT22;397;50.564;7.272;2022-11-04T00:48:57;11.10;99.90
831;DHT22;397;50.564;7.272;2022-11-04T00:51:24;11.10;99.90
831;DHT22;397;50.564;7.272;2022-11-04T00:53:52;11.10;99.90
831;DHT22;397;50.564;7.272;2022-11-04T00:56:20;11.10;99.90
831;DHT22;397;50.564;7.272;2022-11-04T00:58:49;11.10;99.90
831;DHT22;397;50.564;7.272;2022-11-04T01:01:17;11.10;99.90
831;DHT22;397;50.564;7.272;2022-11-04T01:03:47;11.10;99.90
831;DHT22;397;50.564;7.272;2022-11-04T01:06:16;11.10;99.90
831;DHT22;397;50.564;7.272;2022-11-04T01:08:43;11.10;99.90
831;DHT22;397;50.564;7.272;2022-11-04T01:11:11;11.10;99.90
831;DHT22;397;50.564;7.272;2022-11-04T01:13:39;11.10;99.90
831;DHT22;397;50.564;7.272;2022-11-04T01:16:08;11.00;99.90
831;DHT22;397;50.564;7.272;2022-11-04T01:18:36;11.00;99.90
831;DHT22;397;50.564;7.272;2022-11-04T01:21:06;11.00;99.90
831;DHT22;397;50.564;7.272;2022-11-04T01:23:34;11.00;99.90
831;DHT22;397;50.564;7.272;2022-11-04T01:26:14;11.10;99.90
831;DHT22;397;50.564;7.272;2022-11-04T01:28:38;11.00;99.90
831;DHT22;397;50.564;7.272;2022-11-04T01:31:10;11.10;99.90
831;DHT22;397;50.564;7.272;2022-11-04T01:33:38;11.10;99.90
831;DHT22;397;50.564;7.272;2022-11-04T01:36:07;11.10;99.90
831;DHT22;397;50.564;7.272;2022-11-04T01:38:35;11.10;99.90
831;DHT22;397;50.564;7.272;2022-11-04T01:41:03;11.00;99.90
831;DHT22;397;50.564;7.272;2022-11-04T01:43:56;10.90;99.90
831;DHT22;397;50.564;7.272;2022-11-04T01:46:44;10.80;99.90
831;DHT22;397;50.564;7.272;2022-11-04T01:49:23;10.70;99.90
831;DHT22;397;50.564;7.272;2022-11-04T01:51:53;10.60;99.90
831;DHT22;397;50.564;7.272;2022-11-04T01:54:21;10.50;99.90
831;DHT22;397;50.564;7.272;2022-11-04T01:56:49;10.50;99.90
831;DHT22;397;50.564;7.272;2022-11-04T01:59:23;10.40;99.90
831;DHT22;397;50.564;7.272;2022-11-04T02:01:50;10.30;99.90
831;DHT22;397;50.564;7.272;2022-11-04T02:04:18;10.30;99.90
831;DHT22;397;50.564;7.272;2022-11-04T02:06:59;10.20;99.90
831;DHT22;397;50.564;7.272;2022-11-04T02:09:30;10.20;99.90
831;DHT22;397;50.564;7.272;2022-11-04T02:11:58;10.20;99.90
831;DHT22;397;50.564;7.272;2022-11-04T02:14:47;10.20;99.90
831;DHT22;397;50.564;7.272;2022-11-04T02:37:01;9.60;99.90
831;DHT22;397;50.564;7.272;2022-11-04T02:42:32;9.60;99.90
831;DHT22;397;50.564;7.272;2022-11-04T02:47:35;9.60;99.90
831;DHT22;397;50.564;7.272;2022-11-04T02:53:09;9.50;99.90
831;DHT22;397;50.564;7.272;2022-11-04T02:55:44;9.40;99.90
831;DHT22;397;50.564;7.272;2022-11-04T02:58:20;9.30;99.90
831;DHT22;397;50.564;7.272;2022-11-04T03:00:49;9.30;99.90
831;DHT22;397;50.564;7.272;2022-11-04T03:03:21;9.30;99.90
831;DHT22;397;50.564;7.272;2022-11-04T03:05:52;9.20;99.90
831;DHT22;397;50.564;7.272;2022-11-04T03:08:35;9.30;99.90
831;DHT22;397;50.564;7.272;2022-11-04T03:11:13;9.20;99.90
831;DHT22;397;50.564;7.272;2022-11-04T03:13:42;9.10;99.90
831;DHT22;397;50.564;7.272;2022-11-04T03:16:10;9.00;99.90
831;DHT22;397;50.564;7.272;2022-11-04T03:18:56;9.10;99.90
831;DHT22;397;50.564;7.272;2022-11-04T03:21:20;9.10;99.90
831;DHT22;397;50.564;7.272;2022-11-04T03:23:48;9.20;99.90
831;DHT22;397;50.564;7.272;2022-11-04T03:26:36;9.10;99.90
831;DHT22;397;50.564;7.272;2022-11-04T03:31:40;9.10;99.90
831;DHT22;397;50.564;7.272;2022-11-04T03:34:06;9.10;99.90
831;DHT22;397;50.564;7.272;2022-11-04T03:36:33;9.10;99.90
831;DHT22;397;50.564;7.272;2022-11-04T03:39:00;9.00;99.90
831;DHT22;397;50.564;7.272;2022-11-04T03:41:43;8.90;99.90
831;DHT22;397;50.564;7.272;2022-11-04T03:44:10;8.90;99.90
831;DHT22;397;50.564;7.272;2022-11-04T03:46:39;8.80;99.90
831;DHT22;397;50.564;7.272;2022-11-04T03:49:07;8.80;99.90
831;DHT22;397;50.564;7.272;2022-11-04T03:51:35;8.80;99.90
831;DHT22;397;50.564;7.272;2022-11-04T03:54:03;8.80;99.90
831;DHT22;397;50.564;7.272;2022-11-04T03:57:03;8.70;99.90
831;DHT22;397;50.564;7.272;2022-11-04T04:02:17;8.60;99.90
831;DHT22;397;50.564;7.272;2022-11-04T04:07:20;8.60;99.90
831;DHT22;397;50.564;7.272;2022-11-04T04:09:57;8.60;99.90
831;DHT22;397;50.564;7.272;2022-11-04T04:12:35;8.60;99.90
831;DHT22;397;50.564;7.272;2022-11-04T04:15:12;8.40;99.90
831;DHT22;397;50.564;7.272;2022-11-04T04:17:49;8.40;99.90
831;DHT22;397;50.564;7.272;2022-11-04T04:20:19;8.40;99.90
831;DHT22;397;50.564;7.272;2022-11-04T04:22:50;8.40;99.90
831;DHT22;397;50.564;7.272;2022-11-04T04:25:14;8.40;99.90
831;DHT22;397;50.564;7.272;2022-11-04T04:28:01;8.50;99.90
831;DHT22;397;50.564;7.272;2022-11-04T04:30:30;8.40;99.90
831;DHT22;397;50.564;7.272;2022-11-04T04:33:04;8.50;99.90
831;DHT22;397;50.564;7.272;2022-11-04T04:35:33;8.50;99.90
831;DHT22;397;50.564;7.272;2022-11-04T04:38:14;8.50;99.90
831;DHT22;397;50.564;7.272;2022-11-04T04:43:57;8.60;99.90
831;DHT22;397;50.564;7.272;2022-11-04T04:46:45;8.40;99.90
831;DHT22;397;50.564;7.272;2022-11-04T04:49:13;8.50;99.90
831;DHT22;397;50.564;7.272;2022-11-04T04:51:43;8.40;99.90
831;DHT22;397;50.564;7.272;2022-11-04T04:54:12;8.20;99.90
831;DHT22;397;50.564;7.272;2022-11-04T04:56:39;8.20;99.90
831;DHT22;397;50.564;7.272;2022-11-04T04:59:07;8.30;99.90
831;DHT22;397;50.564;7.272;2022-11-04T05:01:34;8.30;99.90
831;DHT22;397;50.564;7.272;2022-11-04T05:04:02;8.30;99.90
831;DHT22;397;50.564;7.272;2022-11-04T05:06:29;8.20;99.90
831;DHT22;397;50.564;7.272;2022-11-04T05:08:57;8.20;99.90
831;DHT22;397;50.564;7.272;2022-11-04T05:11:24;8.30;99.90
831;DHT22;397;50.564;7.272;2022-11-04T05:13:52;8.30;99.90
831;DHT22;397;50.564;7.272;2022-11-04T05:16:19;8.40;99.90
831;DHT22;397;50.564;7.272;2022-11-04T05:18:47;8.40;99.90
831;DHT22;397;50.564;7.272;2022-11-04T05:21:15;8.40;99.90
831;DHT22;397;50.564;7.272;2022-11-04T05:23:43;8.40;99.90
831;DHT22;397;50.564;7.272;2022-11-04T05:26:10;8.50;99.90
831;DHT22;397;50.564;7.272;2022-11-04T05:28:40;8.40;99.90
831;DHT22;397;50.564;7.272;2022-11-04T05:31:07;8.50;99.90
831;DHT22;397;50.564;7.272;2022-11-04T05:33:34;8.40;99.90
831;DHT22;397;50.564;7.272;2022-11-04T05:36:10;8.40;99.90
831;DHT22;397;50.564;7.272;2022-11-04T05:38:39;8.50;99.90
831;DHT22;397;50.564;7.272;2022-11-04T05:41:08;8.30;99.90
831;DHT22;397;50.564;7.272;2022-11-04T05:43:36;8.30;99.90
831;DHT22;397;50.564;7.272;2022-11-04T05:46:04;8.30;99.90
831;DHT22;397;50.564;7.272;2022-11-04T05:48:32;8.40;99.90
831;DHT22;397;50.564;7.272;2022-11-04T05:50:59;8.40;99.90
831;DHT22;397;50.564;7.272;2022-11-04T05:53:27;8.40;99.90
831;DHT22;397;50.564;7.272;2022-11-04T05:55:54;8.40;99.90
831;DHT22;397;50.564;7.272;2022-11-04T05:58:22;8.50;99.90
831;DHT22;397;50.564;7.272;2022-11-04T06:00:49;8.40;99.90
831;DHT22;397;50.564;7.272;2022-11-04T06:03:17;8.40;99.90
831;DHT22;397;50.564;7.272;2022-11-04T06:05:44;8.30;99.90
831;DHT22;397;50.564;7.272;2022-11-04T06:08:12;8.30;99.90
831;DHT22;397;50.564;7.272;2022-11-04T06:10:39;8.30;99.90
831;DHT22;397;50.564;7.272;2022-11-04T06:13:09;8.40;99.90
831;DHT22;397;50.564;7.272;2022-11-04T06:15:36;8.40;99.90
831;DHT22;397;50.564;7.272;2022-11-04T06:18:03;8.40;99.90
831;DHT22;397;50.564;7.272;2022-11-04T06:20:31;8.20;99.90
831;DHT22;397;50.564;7.272;2022-11-04T06:22:58;8.20;99.90
831;DHT22;397;50.564;7.272;2022-11-04T06:25:26;8.30;99.90
831;DHT22;397;50.564;7.272;2022-11-04T06:27:53;8.30;99.90
831;DHT22;397;50.564;7.272;2022-11-04T06:30:21;8.50;99.90
831;DHT22;397;50.564;7.272;2022-11-04T06:32:49;8.60;99.90
831;DHT22;397;50.564;7.272;2022-11-04T06:35:16;8.60;99.90
831;DHT22;397;50.564;7.272;2022-11-04T06:37:44;8.70;99.90
831;DHT22;397;50.564;7.272;2022-11-04T06:40:11;8.80;99.90
831;DHT22;397;50.564;7.272;2022-11-04T06:42:39;8.90;99.90
831;DHT22;397;50.564;7.272;2022-11-04T06:45:09;9.00;99.90
831;DHT22;397;50.564;7.272;2022-11-04T06:47:37;9.00;99.90
831;DHT22;397;50.564;7.272;2022-11-04T06:50:05;8.90;99.90
831;DHT22;397;50.564;7.272;2022-11-04T06:52:32;8.90;99.90
831;DHT22;397;50.564;7.272;2022-11-04T06:55:00;8.80;99.90
831;DHT22;397;50.564;7.272;2022-11-04T06:57:27;8.80;99.90
831;DHT22;397;50.564;7.272;2022-11-04T06:59:55;8.90;99.90
831;DHT22;397;50.564;7.272;2022-11-04T07:02:22;9.00;99.90
831;DHT22;397;50.564;7.272;2022-11-04T07:04:50;9.10;99.90
831;DHT22;397;50.564;7.272;2022-11-04T07:07:17;9.10;99.90
831;DHT22;397;50.564;7.272;2022-11-04T07:09:45;9.20;99.90
831;DHT22;397;50.564;7.272;2022-11-04T07:12:12;9.40;99.90
831;DHT22;397;50.564;7.272;2022-11-04T07:14:40;9.50;99.90
831;DHT22;397;50.564;7.272;2022-11-04T07:17:07;9.60;99.90
831;DHT22;397;50.564;7.272;2022-11-04T07:19:35;9.70;99.90
831;DHT22;397;50.564;7.272;2022-11-04T07:22:02;9.70;99.90
831;DHT22;397;50.564;7.272;2022-11-04T07:24:30;9.70;99.90
831;DHT22;397;50.564;7.272;2022-11-04T07:26:58;9.80;99.90
831;DHT22;397;50.564;7.272;2022-11-04T07:29:26;9.70;99.90
831;DHT22;397;50.564;7.272;2022-11-04T07:31:54;9.80;99.90
831;DHT22;397;50.564;7.272;2022-11-04T07:34:21;10.00;99.90
831;DHT22;397;50.564;7.272;2022-11-04T07:36:49;10.20;99.90
831;DHT22;397;50.564;7.272;2022-11-04T07:39:17;10.30;99.90
831;DHT22;397;50.564;7.272;2022-11-04T07:41:44;10.40;99.90
831;DHT22;397;50.564;7.272;2022-11-04T07:44:12;10.50;99.90
831;DHT22;397;50.564;7.272;2022-11-04T07:46:39;10.50;99.90
831;DHT22;397;50.564;7.272;2022-11-04T07:49:07;10.50;99.90
831;DHT22;397;50.564;7.272;2022-11-04T07:51:34;10.50;99.90
831;DHT22;397;50.564;7.272;2022-11-04T07:54:02;10.60;99.90
831;DHT22;397;50.564;7.272;2022-11-04T07:56:30;10.60;99.90
831;DHT22;397;50.564;7.272;2022-11-04T07:58:57;10.70;99.90
831;DHT22;397;50.564;7.272;2022-11-04T08:01:25;10.90;99.90
831;DHT22;397;50.564;7.272;2022-11-04T08:03:52;10.90;99.90
831;DHT22;397;50.564;7.272;2022-11-04T08:06:20;10.90;99.90
831;DHT22;397;50.564;7.272;2022-11-04T08:08:48;11.00;99.90
831;DHT22;397;50.564;7.272;2022-11-04T08:11:20;11.10;99.90
831;DHT22;397;50.564;7.272;2022-11-04T08:13:48;11.20;99.90
831;DHT22;397;50.564;7.272;2022-11-04T08:16:18;11.10;99.90
831;DHT22;397;50.564;7.272;2022-11-04T08:18:48;11.20;99.90
831;DHT22;397;50.564;7.272;2022-11-04T08:21:17;11.10;99.90
831;DHT22;397;50.564;7.272;2022-11-04T08:23:45;11.10;99.90
831;DHT22;397;50.564;7.272;2022-11-04T08:26:18;11.20;99.90
831;DHT22;397;50.564;7.272;2022-11-04T08:28:46;11.20;99.90
831;DHT22;397;50.564;7.272;2022-11-04T08:31:17;11.10;99.90
831;DHT22;397;50.564;7.272;2022-11-04T08:33:45;11.20;99.90
831;DHT22;397;50.564;7.272;2022-11-04T08:36:17;11.00;99.90
831;DHT22;397;50.564;7.272;2022-11-04T08:38:45;11.10;99.90
831;DHT22;397;50.564;7.272;2022-11-04T08:41:17;11.20;99.90
831;DHT22;397;50.564;7.272;2022-11-04T08:43:45;11.20;99.90
831;DHT22;397;50.564;7.272;2022-11-04T08:46:14;11.20;99.90
831;DHT22;397;50.564;7.272;2022-11-04T08:48:42;11.30;99.90
831;DHT22;397;50.564;7.272;2022-11-04T08:51:15;11.20;99.90
831;DHT22;397;50.564;7.272;2022-11-04T08:53:43;11.30;99.90
831;DHT22;397;50.564;7.272;2022-11-04T08:56:17;11.40;99.90
831;DHT22;397;50.564;7.272;2022-11-04T08:58:40;11.40;99.90
831;DHT22;397;50.564;7.272;2022-11-04T09:01:08;11.40;99.90
831;DHT22;397;50.564;7.272;2022-11-04T09:03:37;11.40;99.90
831;DHT22;397;50.564;7.272;2022-11-04T09:06:07;11.40;99.90
831;DHT22;397;50.564;7.272;2022-11-04T09:08:35;11.40;99.90
831;DHT22;397;50.564;7.272;2022-11-04T09:11:09;11.40;99.90
831;DHT22;397;50.564;7.272;2022-11-04T09:13:37;11.50;99.90
831;DHT22;397;50.564;7.272;2022-11-04T09:16:06;11.50;99.90
831;DHT22;397;50.564;7.272;2022-11-04T09:18:33;11.50;99.90
831;DHT22;397;50.564;7.272;2022-11-04T09:21:03;11.50;99.90
831;DHT22;397;50.564;7.272;2022-11-04T09:23:31;11.50;99.90
831;DHT22;397;50.564;7.272;2022-11-04T09:26:09;11.50;99.90
831;DHT22;397;50.564;7.272;2022-11-04T09:28:32;11.50;99.90
831;DHT22;397;50.564;7.272;2022-11-04T09:31:05;11.60;99.90
831;DHT22;397;50.564;7.272;2022-11-04T09:33:32;11.60;99.90
831;DHT22;397;50.564;7.272;2022-11-04T09:36:00;11.60;99.90
831;DHT22;397;50.564;7.272;2022-11-04T09:38:27;11.60;99.90
831;DHT22;397;50.564;7.272;2022-11-04T09:40:55;11.70;99.90
831;DHT22;397;50.564;7.272;2022-11-04T09:43:59;11.70;99.90
831;DHT22;397;50.564;7.272;2022-11-04T09:46:12;11.90;99.90
831;DHT22;397;50.564;7.272;2022-11-04T09:48:46;12.00;99.90
831;DHT22;397;50.564;7.272;2022-11-04T09:51:18;12.10;99.90
831;DHT22;397;50.564;7.272;2022-11-04T09:53:59;12.00;99.90
831;DHT22;397;50.564;7.272;2022-11-04T09:56:31;12.10;99.90
831;DHT22;397;50.564;7.272;2022-11-04T09:58:54;12.30;99.90
831;DHT22;397;50.564;7.272;2022-11-04T10:01:35;12.30;99.90
831;DHT22;397;50.564;7.272;2022-11-04T10:04:20;12.50;99.90
831;DHT22;397;50.564;7.272;2022-11-04T10:09:50;12.70;99.90
831;DHT22;397;50.564;7.272;2022-11-04T10:15:37;12.60;99.90
831;DHT22;397;50.564;7.272;2022-11-04T10:18:38;12.70;99.90
831;DHT22;397;50.564;7.272;2022-11-04T10:21:19;12.80;99.90
831;DHT22;397;50.564;7.272;2022-11-04T10:26:37;12.90;99.90
831;DHT22;397;50.564;7.272;2022-11-04T10:29:09;12.90;99.90
831;DHT22;397;50.564;7.272;2022-11-04T10:31:37;12.80;99.90
831;DHT22;397;50.564;7.272;2022-11-04T10:34:07;12.80;99.90
831;DHT22;397;50.564;7.272;2022-11-04T10:36:36;12.80;99.90
831;DHT22;397;50.564;7.272;2022-11-04T10:39:12;12.90;99.90
831;DHT22;397;50.564;7.272;2022-11-04T10:41:39;12.80;99.90
831;DHT22;397;50.564;7.272;2022-11-04T10:44:25;12.90;99.90
831;DHT22;397;50.564;7.272;2022-11-04T10:49:48;13.00;99.90
831;DHT22;397;50.564;7.272;2022-11-04T10:52:15;12.90;99.90
831;DHT22;397;50.564;7.272;2022-11-04T10:54:45;13.00;99.90
831;DHT22;397;50.564;7.272;2022-11-04T10:57:18;13.00;99.90
831;DHT22;397;50.564;7.272;2022-11-04T11:07:46;13.20;99.90
831;DHT22;397;50.564;7.272;2022-11-04T11:10:34;13.10;99.90
831;DHT22;397;50.564;7.272;2022-11-04T11:13:20;13.00;99.90
831;DHT22;397;50.564;7.272;2022-11-04T11:15:35;13.00;99.90
831;DHT22;397;50.564;7.272;2022-11-04T11:18:19;13.00;99.90
831;DHT22;397;50.564;7.272;2022-11-04T11:21:06;13.00;99.90
831;DHT22;397;50.564;7.272;2022-11-04T11:23:45;13.20;99.90
831;DHT22;397;50.564;7.272;2022-11-04T11:26:19;13.20;99.90
831;DHT22;397;50.564;7.272;2022-11-04T11:28:53;13.20;99.90
831;DHT22;397;50.564;7.272;2022-11-04T11:31:25;13.20;99.90
831;DHT22;397;50.564;7.272;2022-11-04T11:33:57;13.20;99.90
831;DHT22;397;50.564;7.272;2022-11-04T11:36:35;13.20;99.90
831;DHT22;397;50.564;7.272;2022-11-04T11:39:02;13.30;99.90
831;DHT22;397;50.564;7.272;2022-11-04T11:41:46;13.30;99.90
831;DHT22;397;50.564;7.272;2022-11-04T11:44:19;13.30;99.90
831;DHT22;397;50.564;7.272;2022-11-04T11:46:52;13.40;99.90
831;DHT22;397;50.564;7.272;2022-11-04T11:49:23;13.40;99.90
831;DHT22;397;50.564;7.272;2022-11-04T11:51:51;13.50;99.90
831;DHT22;397;50.564;7.272;2022-11-04T11:54:25;13.40;99.90
831;DHT22;397;50.564;7.272;2022-11-04T11:56:56;13.30;99.90
831;DHT22;397;50.564;7.272;2022-11-04T11:59:32;13.20;99.90
831;DHT22;397;50.564;7.272;2022-11-04T12:04:45;13.10;99.90
831;DHT22;397;50.564;7.272;2022-11-04T12:10:07;13.20;99.90
831;DHT22;397;50.564;7.272;2022-11-04T12:12:55;13.20;99.90
831;DHT22;397;50.564;7.272;2022-11-04T12:18:32;13.20;99.90
831;DHT22;397;50.564;7.272;2022-11-04T12:21:16;13.20;99.90
831;DHT22;397;50.564;7.272;2022-11-04T12:23:53;13.40;99.90
831;DHT22;397;50.564;7.272;2022-11-04T12:27:04;13.30;99.90
831;DHT22;397;50.564;7.272;2022-11-04T12:31:50;13.50;99.90
831;DHT22;397;50.564;7.272;2022-11-04T12:34:21;13.50;99.90
831;DHT22;397;50.564;7.272;2022-11-04T12:47:48;13.50;99.90
831;DHT22;397;50.564;7.272;2022-11-04T12:56:10;13.40;99.90
831;DHT22;397;50.564;7.272;2022-11-04T13:01:24;13.50;99.90
831;DHT22;397;50.564;7.272;2022-11-04T13:04:19;13.70;99.90
831;DHT22;397;50.564;7.272;2022-11-04T13:06:53;13.80;99.90
831;DHT22;397;50.564;7.272;2022-11-04T13:12:02;14.00;99.90
831;DHT22;397;50.564;7.272;2022-11-04T13:14:41;14.10;99.90
831;DHT22;397;50.564;7.272;2022-11-04T13:17:04;13.90;99.90
831;DHT22;397;50.564;7.272;2022-11-04T13:19:44;14.00;99.90
831;DHT22;397;50.564;7.272;2022-11-04T13:22:19;14.00;99.90
831;DHT22;397;50.564;7.272;2022-11-04T13:24:53;14.00;99.90
831;DHT22;397;50.564;7.272;2022-11-04T13:27:26;14.10;99.90
831;DHT22;397;50.564;7.272;2022-11-04T13:38:15;13.70;99.90
831;DHT22;397;50.564;7.272;2022-11-04T13:43:33;13.60;99.90
831;DHT22;397;50.564;7.272;2022-11-04T13:46:28;13.50;99.90
831;DHT22;397;50.564;7.272;2022-11-04T13:48:36;13.50;99.90
831;DHT22;397;50.564;7.272;2022-11-04T13:51:11;13.50;99.90
831;DHT22;397;50.564;7.272;2022-11-04T13:53:44;13.60;99.90
831;DHT22;397;50.564;7.272;2022-11-04T13:56:34;13.50;99.90
831;DHT22;397;50.564;7.272;2022-11-04T13:59:25;13.50;99.90
831;DHT22;397;50.564;7.272;2022-11-04T14:04:43;13.40;99.90
831;DHT22;397;50.564;7.272;2022-11-04T14:07:13;13.40;99.90
831;DHT22;397;50.564;7.272;2022-11-04T14:09:50;13.30;99.90
831;DHT22;397;50.564;7.272;2022-11-04T14:12:29;13.10;99.90
831;DHT22;397;50.564;7.272;2022-11-04T14:15:04;13.20;99.90
831;DHT22;397;50.564;7.272;2022-11-04T14:20:24;13.30;99.90
831;DHT22;397;50.564;7.272;2022-11-04T14:22:54;13.40;99.90
831;DHT22;397;50.564;7.272;2022-11-04T14:30:56;13.10;99.90
831;DHT22;397;50.564;7.272;2022-11-04T14:44:15;13.10;99.90
831;DHT22;397;50.564;7.272;2022-11-04T14:46:44;13.10;99.90
831;DHT22;397;50.564;7.272;2022-11-04T14:49:39;13.20;99.90
831;DHT22;397;50.564;7.272;2022-11-04T14:54:47;13.00;99.90
831;DHT22;397;50.564;7.272;2022-11-04T14:57:18;13.00;99.90
831;DHT22;397;50.564;7.272;2022-11-04T14:59:46;13.00;99.90
831;DHT22;397;50.564;7.272;2022-11-04T15:02:20;12.80;99.90
831;DHT22;397;50.564;7.272;2022-11-04T15:04:50;12.80;99.90
831;DHT22;397;50.564;7.272;2022-11-04T15:07:38;12.80;99.90
831;DHT22;397;50.564;7.272;2022-11-04T15:10:26;12.80;99.90
831;DHT22;397;50.564;7.272;2022-11-04T15:13:00;12.70;99.90
831;DHT22;397;50.564;7.272;2022-11-04T15:15:39;12.80;99.90
831;DHT22;397;50.564;7.272;2022-11-04T15:18:14;12.50;99.90
831;DHT22;397;50.564;7.272;2022-11-04T15:20:50;12.50;99.90
831;DHT22;397;50.564;7.272;2022-11-04T15:23:26;12.50;99.90
831;DHT22;397;50.564;7.272;2022-11-04T15:25:55;12.60;99.90
831;DHT22;397;50.564;7.272;2022-11-04T15:28:46;12.50;99.90
831;DHT22;397;50.564;7.272;2022-11-04T15:31:13;12.50;99.90
831;DHT22;397;50.564;7.272;2022-11-04T15:33:39;12.50;99.90
831;DHT22;397;50.564;7.272;2022-11-04T15:36:10;12.30;99.90
831;DHT22;397;50.564;7.272;2022-11-04T15:38:39;12.30;99.90
831;DHT22;397;50.564;7.272;2022-11-04T15:41:07;12.20;99.90
831;DHT22;397;50.564;7.272;2022-11-04T15:43:53;12.20;99.90
831;DHT22;397;50.564;7.272;2022-11-04T15:46:22;12.20;99.90
831;DHT22;397;50.564;7.272;2022-11-04T15:49:02;12.20;99.90
831;DHT22;397;50.564;7.272;2022-11-04T15:51:36;12.20;99.90
831;DHT22;397;50.564;7.272;2022-11-04T15:54:19;12.20;99.90
831;DHT22;397;50.564;7.272;2022-11-04T15:56:46;12.20;99.90
831;DHT22;397;50.564;7.272;2022-11-04T15:59:27;12.10;99.90
831;DHT22;397;50.564;7.272;2022-11-04T16:01:55;12.10;99.90
831;DHT22;397;50.564;7.272;2022-11-04T16:04:25;12.00;99.90
831;DHT22;397;50.564;7.272;2022-11-04T16:09:47;12.00;99.90
831;DHT22;397;50.564;7.272;2022-11-04T16:12:23;11.80;99.90
831;DHT22;397;50.564;7.272;2022-11-04T16:14:52;11.80;99.90
831;DHT22;397;50.564;7.272;2022-11-04T16:17:16;11.80;99.90
831;DHT22;397;50.564;7.272;2022-11-04T16:19:46;11.90;99.90
831;DHT22;397;50.564;7.272;2022-11-04T16:22:20;11.90;99.90
831;DHT22;397;50.564;7.272;2022-11-04T16:24:50;11.90;99.90
831;DHT22;397;50.564;7.272;2022-11-04T16:27:20;11.90;99.90
831;DHT22;397;50.564;7.272;2022-11-04T16:30:07;11.70;99.90
831;DHT22;397;50.564;7.272;2022-11-04T16:32:27;11.80;99.90
831;DHT22;397;50.564;7.272;2022-11-04T16:34:58;11.80;99.90
831;DHT22;397;50.564;7.272;2022-11-04T16:37:26;11.90;99.90
831;DHT22;397;50.564;7.272;2022-11-04T16:39:54;11.80;99.90
831;DHT22;397;50.564;7.272;2022-11-04T16:42:21;11.90;99.90
831;DHT22;397;50.564;7.272;2022-11-04T16:44:54;11.80;99.90
831;DHT22;397;50.564;7.272;2022-11-04T16:47:22;11.80;99.90
831;DHT22;397;50.564;7.272;2022-11-04T16:49:51;11.80;99.90
831;DHT22;397;50.564;7.272;2022-11-04T16:52:23;11.90;99.90
831;DHT22;397;50.564;7.272;2022-11-04T16:54:54;11.90;99.90
831;DHT22;397;50.564;7.272;2022-11-04T16:57:23;11.90;99.90
831;DHT22;397;50.564;7.272;2022-11-04T16:59:51;11.90;99.90
831;DHT22;397;50.564;7.272;2022-11-04T17:02:29;11.80;99.90
831;DHT22;397;50.564;7.272;2022-11-04T17:04:57;11.80;99.90
831;DHT22;397;50.564;7.272;2022-11-04T17:07:25;11.90;99.90
831;DHT22;397;50.564;7.272;2022-11-04T17:09:52;11.70;99.90
831;DHT22;397;50.564;7.272;2022-11-04T17:12:20;11.70;99.90
831;DHT22;397;50.564;7.272;2022-11-04T17:14:47;11.70;99.90
831;DHT22;397;50.564;7.272;2022-11-04T17:17:15;11.50;99.90
831;DHT22;397;50.564;7.272;2022-11-04T17:19:42;11.30;99.90
831;DHT22;397;50.564;7.272;2022-11-04T17:22:10;11.20;99.90
831;DHT22;397;50.564;7.272;2022-11-04T17:24:38;11.20;99.90
831;DHT22;397;50.564;7.272;2022-11-04T17:27:05;11.10;99.90
831;DHT22;397;50.564;7.272;2022-11-04T17:29:33;11.00;99.90
831;DHT22;397;50.564;7.272;2022-11-04T17:32:03;10.90;99.90
831;DHT22;397;50.564;7.272;2022-11-04T17:34:31;10.90;99.90
831;DHT22;397;50.564;7.272;2022-11-04T17:36:58;10.80;99.90
831;DHT22;397;50.564;7.272;2022-11-04T17:39:26;10.90;99.90
831;DHT22;397;50.564;7.272;2022-11-04T17:41:53;11.00;99.90
831;DHT22;397;50.564;7.272;2022-11-04T17:44:39;11.20;99.90
831;DHT22;397;50.564;7.272;2022-11-04T17:47:06;11.20;99.90
831;DHT22;397;50.564;7.272;2022-11-04T17:49:35;11.20;99.90
831;DHT22;397;50.564;7.272;2022-11-04T17:52:07;11.10;99.90
831;DHT22;397;50.564;7.272;2022-11-04T17:54:34;11.10;99.90
831;DHT22;397;50.564;7.272;2022-11-04T17:57:02;11.20;99.90
831;DHT22;397;50.564;7.272;2022-11-04T17:59:29;11.20;99.90
831;DHT22;397;50.564;7.272;2022-11-04T18:01:57;11.20;99.90
831;DHT22;397;50.564;7.272;2022-11-04T18:04:24;11.20;99.90
831;DHT22;397;50.564;7.272;2022-11-04T18:06:52;11.20;99.90
831;DHT22;397;50.564;7.272;2022-11-04T18:09:19;11.30;99.90
831;DHT22;397;50.564;7.272;2022-11-04T18:11:47;11.20;99.90
831;DHT22;397;50.564;7.272;2022-11-04T18:14:32;11.20;99.90
831;DHT22;397;50.564;7.272;2022-11-04T18:17:00;11.20;99.90
831;DHT22;397;50.564;7.272;2022-11-04T18:19:28;11.10;99.90
831;DHT22;397;50.564;7.272;2022-11-04T18:21:55;11.20;99.90
831;DHT22;397;50.564;7.272;2022-11-04T18:24:23;11.20;99.90
831;DHT22;397;50.564;7.272;2022-11-04T18:26:50;11.10;99.90
831;DHT22;397;50.564;7.272;2022-11-04T18:29:19;11.10;99.90
831;DHT22;397;50.564;7.272;2022-11-04T18:31:46;11.10;99.90
831;DHT22;397;50.564;7.272;2022-11-04T18:34:16;11.10;99.90
831;DHT22;397;50.564;7.272;2022-11-04T18:36:46;11.00;99.90
831;DHT22;397;50.564;7.272;2022-11-04T18:39:16;11.10;99.90
831;DHT22;397;50.564;7.272;2022-11-04T18:41:44;11.10;99.90
831;DHT22;397;50.564;7.272;2022-11-04T18:44:19;11.10;99.90
831;DHT22;397;50.564;7.272;2022-11-04T18:46:48;11.10;99.90
831;DHT22;397;50.564;7.272;2022-11-04T18:49:16;11.10;99.90
831;DHT22;397;50.564;7.272;2022-11-04T18:51:46;11.20;99.90
831;DHT22;397;50.564;7.272;2022-11-04T18:54:13;11.20;99.90
831;DHT22;397;50.564;7.272;2022-11-04T18:56:41;11.20;99.90
831;DHT22;397;50.564;7.272;2022-11-04T18:59:11;11.10;99.90
831;DHT22;397;50.564;7.272;2022-11-04T19:01:41;11.10;99.90
831;DHT22;397;50.564;7.272;2022-11-04T19:04:11;11.10;99.90
831;DHT22;397;50.564;7.272;2022-11-04T19:06:41;11.10;99.90
831;DHT22;397;50.564;7.272;2022-11-04T19:09:10;11.10;99.90
831;DHT22;397;50.564;7.272;2022-11-04T19:11:39;11.10;99.90
831;DHT22;397;50.564;7.272;2022-11-04T19:14:14;11.00;99.90
831;DHT22;397;50.564;7.272;2022-11-04T19:16:41;11.00;99.90
831;DHT22;397;50.564;7.272;2022-11-04T19:19:12;11.00;99.90